createdAt,value
2022-10-11T00:00:03.411Z,49.32
2022-10-11T00:00:15.110Z,49.32
2022-10-11T00:00:25.838Z,49.32
2022-10-11T00:00:36.581Z,49.32
2022-10-11T00:00:49.082Z,49.32
2022-10-11T00:00:59.897Z,49.32
2022-10-11T00:01:12.389Z,49.32
2022-10-11T00:01:23.360Z,49.32
2022-10-11T00:01:34.200Z,49.32
2022-10-11T00:01:45.144Z,49.32
2022-10-11T00:01:55.971Z,49.32
2022-10-11T00:02:06.793Z,49.32
2022-10-11T00:02:17.543Z,49.32
2022-10-11T00:02:28.312Z,49.32
2022-10-11T00:02:39.137Z,49.32
2022-10-11T00:02:49.873Z,49.32
2022-10-11T00:03:00.673Z,49.32
2022-10-11T00:03:15.432Z,49.32
2022-10-11T00:03:27.880Z,49.32
2022-10-11T00:03:41.608Z,49.32
2022-10-11T00:03:53.312Z,49.32
2022-10-11T00:04:04.081Z,49.32
2022-10-11T00:04:16.485Z,49.32
2022-10-11T00:04:27.231Z,49.32
2022-10-11T00:04:38.007Z,49.32
2022-10-11T00:04:48.734Z,49.32
2022-10-11T00:04:59.472Z,49.32
2022-10-11T00:05:10.247Z,49.32
2022-10-11T00:05:21.002Z,49.32
2022-10-11T00:05:32.723Z,49.32
2022-10-11T00:05:43.453Z,49.32
2022-10-11T00:05:54.182Z,49.32
2022-10-11T00:06:08.356Z,49.32
2022-10-11T00:06:19.192Z,49.32
2022-10-11T00:06:29.971Z,49.32
2022-10-11T00:06:40.724Z,49.32
2022-10-11T00:06:51.503Z,49.32
2022-10-11T00:07:03.294Z,49.32
2022-10-11T00:07:14.057Z,49.32
2022-10-11T00:07:25.746Z,49.32
2022-10-11T00:07:36.474Z,49.32
2022-10-11T00:07:47.225Z,49.32
2022-10-11T00:07:58.903Z,49.32
2022-10-11T00:08:09.674Z,49.32
2022-10-11T00:08:22.185Z,49.32
2022-10-11T00:08:34.633Z,49.32
2022-10-11T00:08:46.364Z,49.32
2022-10-11T00:08:57.102Z,49.32
2022-10-11T00:09:10.085Z,49.32
2022-10-11T00:09:23.828Z,49.32
2022-10-11T00:09:37.535Z,49.32
2022-10-11T00:09:48.293Z,49.32
2022-10-11T00:09:59.099Z,49.32
2022-10-11T00:10:10.833Z,49.32
2022-10-11T00:10:22.574Z,49.32
2022-10-11T00:10:33.330Z,49.32
2022-10-11T00:10:44.096Z,49.32
2022-10-11T00:10:56.334Z,49.32
2022-10-11T00:11:08.774Z,49.32
2022-10-11T00:11:19.557Z,49.22
2022-10-11T00:11:31.284Z,49.32
2022-10-11T00:11:42.024Z,49.35
2022-10-11T00:11:52.808Z,49.35
2022-10-11T00:12:03.553Z,49.32
2022-10-11T00:12:15.275Z,49.35
2022-10-11T00:12:27.749Z,49.22
2022-10-11T00:12:38.556Z,49.32
2022-10-11T00:12:49.346Z,49.22
2022-10-11T00:13:01.095Z,49.22
2022-10-11T00:13:12.792Z,49.32
2022-10-11T00:13:26.003Z,49.35
2022-10-11T00:13:38.686Z,49.35
2022-10-11T00:13:50.943Z,49.35
2022-10-11T00:14:01.718Z,49.32
2022-10-11T00:14:13.416Z,49.35
2022-10-11T00:14:24.159Z,49.32
2022-10-11T00:14:34.886Z,49.32
2022-10-11T00:14:45.653Z,49.32
2022-10-11T00:14:56.405Z,49.35
2022-10-11T00:15:07.135Z,49.35
2022-10-11T00:15:17.886Z,49.35
2022-10-11T00:15:28.618Z,49.35
2022-10-11T00:15:39.358Z,49.35
2022-10-11T00:15:50.115Z,49.24
2022-10-11T00:16:00.863Z,49.24
2022-10-11T00:16:11.579Z,49.24
2022-10-11T00:16:23.766Z,49.24
2022-10-11T00:16:35.529Z,49.24
2022-10-11T00:16:46.280Z,49.24
2022-10-11T00:16:57.008Z,49.24
2022-10-11T00:17:07.757Z,49.24
2022-10-11T00:17:18.504Z,49.24
2022-10-11T00:17:30.950Z,49.24
2022-10-11T00:17:41.677Z,49.24
2022-10-11T00:17:52.409Z,49.24
2022-10-11T00:18:05.384Z,49.24
2022-10-11T00:18:16.279Z,49.24
2022-10-11T00:18:27.039Z,49.24
2022-10-11T00:18:39.478Z,49.24
2022-10-11T00:18:51.909Z,49.24
2022-10-11T00:19:02.687Z,49.24
2022-10-11T00:19:13.427Z,49.24
2022-10-11T00:19:25.867Z,49.24
2022-10-11T00:19:38.133Z,49.24
2022-10-11T00:19:51.327Z,49.24
2022-10-11T00:20:04.560Z,49.24
2022-10-11T00:20:15.289Z,49.24
2022-10-11T00:20:26.020Z,49.24
2022-10-11T00:20:38.438Z,49.24
2022-10-11T00:20:50.417Z,49.24
2022-10-11T00:21:03.613Z,49.24
2022-10-11T00:21:14.358Z,49.24
2022-10-11T00:21:25.108Z,49.24
2022-10-11T00:21:35.842Z,49.24
2022-10-11T00:21:49.028Z,49.24
2022-10-11T00:21:59.780Z,49.24
2022-10-11T00:22:12.979Z,49.24
2022-10-11T00:22:24.691Z,49.24
2022-10-11T00:22:35.428Z,49.24
2022-10-11T00:22:48.643Z,49.24
2022-10-11T00:22:59.411Z,49.24
2022-10-11T00:23:10.158Z,49.24
2022-10-11T00:23:22.629Z,49.24
2022-10-11T00:23:35.089Z,49.24
2022-10-11T00:23:45.832Z,49.24
2022-10-11T00:23:57.861Z,49.24
2022-10-11T00:24:10.040Z,49.24
2022-10-11T00:24:22.245Z,49.24
2022-10-11T00:24:34.690Z,49.24
2022-10-11T00:24:45.430Z,49.24
2022-10-11T00:24:56.159Z,49.24
2022-10-11T00:25:06.890Z,49.24
2022-10-11T00:25:17.619Z,49.24
2022-10-11T00:25:28.349Z,49.24
2022-10-11T00:25:39.095Z,49.24
2022-10-11T00:25:49.820Z,49.24
2022-10-11T00:26:00.540Z,49.24
2022-10-11T00:26:11.282Z,49.24
2022-10-11T00:26:22.010Z,49.24
2022-10-11T00:26:32.746Z,49.24
2022-10-11T00:26:46.940Z,49.24
2022-10-11T00:26:58.725Z,49.24
2022-10-11T00:27:10.672Z,49.24
2022-10-11T00:27:21.419Z,49.24
2022-10-11T00:27:34.374Z,49.24
2022-10-11T00:27:46.093Z,49.24
2022-10-11T00:27:56.831Z,49.24
2022-10-11T00:28:07.635Z,49.24
2022-10-11T00:28:18.405Z,49.24
2022-10-11T00:28:29.239Z,49.24
2022-10-11T00:28:42.225Z,49.24
2022-10-11T00:28:53.062Z,49.24
2022-10-11T00:29:06.303Z,49.15
2022-10-11T00:29:18.571Z,49.24
2022-10-11T00:29:29.310Z,49.15
2022-10-11T00:29:40.056Z,49.15
2022-10-11T00:29:53.262Z,49.15
2022-10-11T00:30:04.056Z,49.24
2022-10-11T00:30:14.805Z,49.15
2022-10-11T00:30:25.548Z,49.15
2022-10-11T00:30:36.291Z,49.15
2022-10-11T00:30:47.030Z,49.15
2022-10-11T00:30:59.494Z,49.15
2022-10-11T00:31:12.212Z,49.15
2022-10-11T00:31:22.973Z,49.15
2022-10-11T00:31:36.213Z,49.15
2022-10-11T00:31:46.955Z,49.15
2022-10-11T00:31:57.696Z,49.15
2022-10-11T00:32:08.443Z,49.15
2022-10-11T00:32:19.212Z,49.15
2022-10-11T00:32:30.830Z,49.15
2022-10-11T00:32:41.574Z,49.15
2022-10-11T00:32:52.314Z,49.15
2022-10-11T00:33:04.853Z,49.15
2022-10-11T00:33:17.794Z,49.15
2022-10-11T00:33:30.274Z,49.15
2022-10-11T00:33:41.998Z,49.15
2022-10-11T00:33:54.404Z,49.15
2022-10-11T00:34:06.193Z,49.15
2022-10-11T00:34:20.834Z,49.15
2022-10-11T00:34:32.532Z,49.15
2022-10-11T00:34:43.293Z,49.15
2022-10-11T00:34:55.755Z,49.15
2022-10-11T00:35:08.199Z,49.15
2022-10-11T00:35:18.924Z,49.15
2022-10-11T00:35:29.654Z,49.15
2022-10-11T00:35:40.384Z,49.15
2022-10-11T00:35:51.114Z,49.15
2022-10-11T00:36:02.195Z,49.15
2022-10-11T00:36:13.135Z,49.15
2022-10-11T00:36:24.836Z,49.15
2022-10-11T00:36:35.566Z,49.15
2022-10-11T00:36:46.294Z,49.15
2022-10-11T00:36:57.024Z,49.15
2022-10-11T00:37:11.191Z,49.15
2022-10-11T00:37:21.954Z,49.15
2022-10-11T00:37:32.705Z,49.15
2022-10-11T00:37:43.475Z,49.15
2022-10-11T00:37:55.909Z,49.15
2022-10-11T00:38:08.387Z,49.15
2022-10-11T00:38:19.125Z,49.15
2022-10-11T00:38:31.877Z,49.15
2022-10-11T00:38:42.817Z,49.15
2022-10-11T00:38:53.549Z,49.15
2022-10-11T00:39:04.304Z,49.15
2022-10-11T00:39:15.997Z,49.15
2022-10-11T00:39:28.717Z,49.15
2022-10-11T00:39:41.706Z,49.04
2022-10-11T00:39:53.916Z,49.15
2022-10-11T00:40:05.606Z,49.04
2022-10-11T00:40:18.096Z,49.04
2022-10-11T00:40:30.565Z,49.04
2022-10-11T00:40:43.023Z,49.04
2022-10-11T00:40:53.748Z,49.04
2022-10-11T00:41:04.481Z,49.04
2022-10-11T00:41:15.247Z,49.04
2022-10-11T00:41:28.684Z,49.04
2022-10-11T00:41:41.128Z,49.04
2022-10-11T00:41:51.876Z,49.04
2022-10-11T00:42:04.297Z,49.04
2022-10-11T00:42:15.037Z,49.04
2022-10-11T00:42:27.465Z,49.04
2022-10-11T00:42:38.226Z,49.04
2022-10-11T00:42:48.968Z,49.04
2022-10-11T00:42:59.697Z,49.04
2022-10-11T00:43:10.468Z,49.04
2022-10-11T00:43:22.678Z,49.04
2022-10-11T00:43:33.436Z,49.04
2022-10-11T00:43:45.858Z,49.04
2022-10-11T00:44:00.087Z,49.04
2022-10-11T00:44:10.816Z,49.04
2022-10-11T00:44:22.527Z,49.04
2022-10-11T00:44:34.987Z,49.04
2022-10-11T00:44:45.739Z,49.04
2022-10-11T00:44:56.489Z,49.04
2022-10-11T00:45:08.696Z,49.04
2022-10-11T00:45:19.451Z,49.04
2022-10-11T00:45:30.168Z,49.04
2022-10-11T00:45:40.899Z,49.04
2022-10-11T00:45:51.629Z,49.04
2022-10-11T00:46:02.821Z,49.04
2022-10-11T00:46:13.739Z,49.04
2022-10-11T00:46:24.472Z,49.04
2022-10-11T00:46:35.202Z,49.04
2022-10-11T00:46:48.410Z,49.04
2022-10-11T00:46:59.132Z,49.04
2022-10-11T00:47:09.859Z,49.04
2022-10-11T00:47:22.810Z,49.04
2022-10-11T00:47:36.019Z,49.04
2022-10-11T00:47:46.756Z,48.94
2022-10-11T00:47:57.498Z,49.04
2022-10-11T00:48:09.969Z,49.04
2022-10-11T00:48:20.690Z,49.04
2022-10-11T00:48:32.399Z,49.04
2022-10-11T00:48:43.160Z,48.94
2022-10-11T00:48:53.891Z,49.04
2022-10-11T00:49:04.659Z,49.04
2022-10-11T00:49:15.388Z,49.04
2022-10-11T00:49:26.143Z,49.04
2022-10-11T00:49:37.831Z,49.04
2022-10-11T00:49:48.628Z,49.04
2022-10-11T00:50:00.383Z,49.04
2022-10-11T00:50:11.138Z,49.04
2022-10-11T00:50:21.879Z,49.04
2022-10-11T00:50:33.570Z,49.04
2022-10-11T00:50:46.049Z,49.04
2022-10-11T00:50:56.813Z,49.04
2022-10-11T00:51:08.120Z,49.04
2022-10-11T00:51:18.990Z,49.04
2022-10-11T00:51:32.398Z,49.04
2022-10-11T00:51:45.033Z,49.04
2022-10-11T00:51:55.781Z,49.04
2022-10-11T00:52:06.541Z,49.04
2022-10-11T00:52:18.750Z,49.04
2022-10-11T00:52:29.501Z,48.94
2022-10-11T00:52:40.230Z,49.04
2022-10-11T00:52:50.971Z,48.94
2022-10-11T00:53:01.723Z,48.94
2022-10-11T00:53:14.311Z,48.94
2022-10-11T00:53:26.001Z,48.94
2022-10-11T00:53:36.775Z,48.94
2022-10-11T00:53:49.194Z,48.94
2022-10-11T00:53:59.963Z,48.94
2022-10-11T00:54:12.393Z,48.94
2022-10-11T00:54:24.123Z,48.94
2022-10-11T00:54:36.549Z,48.94
2022-10-11T00:54:47.333Z,48.94
2022-10-11T00:55:00.072Z,48.94
2022-10-11T00:55:10.811Z,48.94
2022-10-11T00:55:22.516Z,48.94
2022-10-11T00:55:34.216Z,48.94
2022-10-11T00:55:44.962Z,48.94
2022-10-11T00:55:55.682Z,48.94
2022-10-11T00:56:06.984Z,48.94
2022-10-11T00:56:17.966Z,48.94
2022-10-11T00:56:28.707Z,48.94
2022-10-11T00:56:40.924Z,48.94
2022-10-11T00:56:52.713Z,48.94
2022-10-11T00:57:03.456Z,48.94
2022-10-11T00:57:14.194Z,48.94
2022-10-11T00:57:24.951Z,48.94
2022-10-11T00:57:35.681Z,48.94
2022-10-11T00:57:48.404Z,48.94
2022-10-11T00:58:00.140Z,48.94
2022-10-11T00:58:13.246Z,48.94
2022-10-11T00:58:25.741Z,48.94
2022-10-11T00:58:38.183Z,48.94
2022-10-11T00:58:51.913Z,48.94
2022-10-11T00:59:04.353Z,48.94
2022-10-11T00:59:16.045Z,48.94
2022-10-11T00:59:26.793Z,48.94
2022-10-11T00:59:37.522Z,48.94
2022-10-11T00:59:48.254Z,48.94
2022-10-11T01:00:00.713Z,48.94
2022-10-11T01:00:13.165Z,48.94
2022-10-11T01:00:24.895Z,48.94
2022-10-11T01:00:37.351Z,48.94
2022-10-11T01:00:48.913Z,48.94
2022-10-11T01:01:00.740Z,48.94
2022-10-11T01:01:13.292Z,48.84
2022-10-11T01:01:26.545Z,48.94
2022-10-11T01:01:37.329Z,48.84
2022-10-11T01:01:49.066Z,48.94
2022-10-11T01:01:59.856Z,48.84
2022-10-11T01:02:10.604Z,48.84
2022-10-11T01:02:21.334Z,48.84
2022-10-11T01:02:33.768Z,48.86
2022-10-11T01:02:46.728Z,48.86
2022-10-11T01:02:57.487Z,48.84
2022-10-11T01:03:08.222Z,48.84
2022-10-11T01:03:18.984Z,48.84
2022-10-11T01:03:29.726Z,48.84
2022-10-11T01:03:40.454Z,48.84
2022-10-11T01:03:51.198Z,48.86
2022-10-11T01:04:01.924Z,48.84
2022-10-11T01:04:12.655Z,48.84
2022-10-11T01:04:23.395Z,48.86
2022-10-11T01:04:34.145Z,48.84
2022-10-11T01:04:44.894Z,48.84
2022-10-11T01:05:11.659Z,48.84
2022-10-11T01:05:28.685Z,48.86
2022-10-11T01:05:29.625Z,48.84
2022-10-11T01:05:40.765Z,48.86
2022-10-11T01:05:51.496Z,48.86
2022-10-11T01:06:02.551Z,48.84
2022-10-11T01:06:13.407Z,48.86
2022-10-11T01:06:24.147Z,48.86
2022-10-11T01:06:34.874Z,48.86
2022-10-11T01:06:45.605Z,48.86
2022-10-11T01:06:57.305Z,48.86
2022-10-11T01:07:10.555Z,48.86
2022-10-11T01:07:22.809Z,48.86
2022-10-11T01:07:36.009Z,48.86
2022-10-11T01:07:46.759Z,48.86
2022-10-11T01:07:57.477Z,48.86
2022-10-11T01:08:10.435Z,48.86
2022-10-11T01:08:22.924Z,48.86
2022-10-11T01:08:33.647Z,48.86
2022-10-11T01:08:45.398Z,48.86
2022-10-11T01:08:58.587Z,48.86
2022-10-11T01:09:10.326Z,48.86
2022-10-11T01:09:22.054Z,48.86
2022-10-11T01:09:33.780Z,48.86
2022-10-11T01:09:46.249Z,48.86
2022-10-11T01:09:56.980Z,48.86
2022-10-11T01:10:09.416Z,48.76
2022-10-11T01:10:20.167Z,48.86
2022-10-11T01:10:31.888Z,48.76
2022-10-11T01:10:46.106Z,48.86
2022-10-11T01:10:58.598Z,48.86
2022-10-11T01:11:10.291Z,48.86
2022-10-11T01:11:24.008Z,48.76
2022-10-11T01:11:35.981Z,48.76
2022-10-11T01:11:48.389Z,48.76
2022-10-11T01:11:59.135Z,48.76
2022-10-11T01:12:09.849Z,48.76
2022-10-11T01:12:20.616Z,48.76
2022-10-11T01:12:31.380Z,48.76
2022-10-11T01:12:42.107Z,48.76
2022-10-11T01:12:52.842Z,48.76
2022-10-11T01:13:03.598Z,48.76
2022-10-11T01:13:14.328Z,48.76
2022-10-11T01:13:25.097Z,48.76
2022-10-11T01:13:35.838Z,48.76
2022-10-11T01:13:46.560Z,48.76
2022-10-11T01:13:57.298Z,48.76
2022-10-11T01:14:08.063Z,48.76
2022-10-11T01:14:18.790Z,48.76
2022-10-11T01:14:29.540Z,48.76
2022-10-11T01:14:40.270Z,48.76
2022-10-11T01:14:51.007Z,48.76
2022-10-11T01:15:01.769Z,48.76
2022-10-11T01:15:12.501Z,48.76
2022-10-11T01:15:23.229Z,48.76
2022-10-11T01:15:33.968Z,48.76
2022-10-11T01:15:44.702Z,48.76
2022-10-11T01:15:55.429Z,48.76
2022-10-11T01:16:06.672Z,48.76
2022-10-11T01:16:17.650Z,48.76
2022-10-11T01:16:28.379Z,48.76
2022-10-11T01:16:39.118Z,48.76
2022-10-11T01:16:49.892Z,48.76
2022-10-11T01:17:01.592Z,48.76
2022-10-11T01:17:13.288Z,48.66
2022-10-11T01:17:26.240Z,48.66
2022-10-11T01:17:38.980Z,48.76
2022-10-11T01:17:49.730Z,48.66
2022-10-11T01:18:00.464Z,48.76
2022-10-11T01:18:12.690Z,48.66
2022-10-11T01:18:23.463Z,48.66
2022-10-11T01:18:36.420Z,48.66
2022-10-11T01:18:47.180Z,48.66
2022-10-11T01:19:00.312Z,48.66
2022-10-11T01:19:12.752Z,48.66
2022-10-11T01:19:25.941Z,48.66
2022-10-11T01:19:39.664Z,48.66
2022-10-11T01:19:50.391Z,48.66
2022-10-11T01:20:01.132Z,48.66
2022-10-11T01:20:11.870Z,48.66
2022-10-11T01:20:24.296Z,48.66
2022-10-11T01:20:35.044Z,48.66
2022-10-11T01:20:47.462Z,48.66
2022-10-11T01:20:59.942Z,48.66
2022-10-11T01:21:10.972Z,48.66
2022-10-11T01:21:23.434Z,48.66
2022-10-11T01:21:34.183Z,48.66
2022-10-11T01:21:47.893Z,48.66
2022-10-11T01:22:00.391Z,48.66
2022-10-11T01:22:13.103Z,48.66
2022-10-11T01:22:23.831Z,48.66
2022-10-11T01:22:36.036Z,48.66
2022-10-11T01:22:48.481Z,48.66
2022-10-11T01:22:59.224Z,48.66
2022-10-11T01:23:09.965Z,48.66
2022-10-11T01:23:20.690Z,48.66
2022-10-11T01:23:31.453Z,48.66
2022-10-11T01:23:43.143Z,48.66
2022-10-11T01:23:53.891Z,48.66
2022-10-11T01:24:08.394Z,48.66
2022-10-11T01:24:21.194Z,48.66
2022-10-11T01:24:31.943Z,48.66
2022-10-11T01:24:42.686Z,48.66
2022-10-11T01:24:54.452Z,48.66
2022-10-11T01:25:05.211Z,48.66
2022-10-11T01:25:15.961Z,48.66
2022-10-11T01:25:28.657Z,48.66
2022-10-11T01:25:39.384Z,48.66
2022-10-11T01:25:50.116Z,48.66
2022-10-11T01:26:01.013Z,48.66
2022-10-11T01:26:11.952Z,48.66
2022-10-11T01:26:24.392Z,48.66
2022-10-11T01:26:35.123Z,48.66
2022-10-11T01:26:45.862Z,48.66
2022-10-11T01:26:56.593Z,48.66
2022-10-11T01:27:07.345Z,48.66
2022-10-11T01:27:18.065Z,48.66
2022-10-11T01:27:28.804Z,48.66
2022-10-11T01:27:40.503Z,48.66
2022-10-11T01:27:55.345Z,48.66
2022-10-11T01:28:08.085Z,48.66
2022-10-11T01:28:18.849Z,48.66
2022-10-11T01:28:29.649Z,48.66
2022-10-11T01:28:40.555Z,48.66
2022-10-11T01:28:54.809Z,48.66
2022-10-11T01:29:06.542Z,48.66
2022-10-11T01:29:18.736Z,48.66
2022-10-11T01:29:30.497Z,48.66
2022-10-11T01:29:42.952Z,48.66
2022-10-11T01:29:56.166Z,48.66
2022-10-11T01:30:06.925Z,48.66
2022-10-11T01:30:17.668Z,48.66
2022-10-11T01:30:28.405Z,48.66
2022-10-11T01:30:39.134Z,48.66
2022-10-11T01:30:51.836Z,48.66
2022-10-11T01:31:04.311Z,48.66
2022-10-11T01:31:16.518Z,48.66
2022-10-11T01:31:28.475Z,48.66
2022-10-11T01:31:40.936Z,48.66
2022-10-11T01:31:53.389Z,48.66
2022-10-11T01:32:05.870Z,48.66
2022-10-11T01:32:18.342Z,48.66
2022-10-11T01:32:30.856Z,48.66
2022-10-11T01:32:41.592Z,48.66
2022-10-11T01:32:52.315Z,48.66
2022-10-11T01:33:03.099Z,48.66
2022-10-11T01:33:13.847Z,48.66
2022-10-11T01:33:24.585Z,48.56
2022-10-11T01:33:35.351Z,48.66
2022-10-11T01:33:46.096Z,48.66
2022-10-11T01:33:56.817Z,48.66
2022-10-11T01:34:07.547Z,48.66
2022-10-11T01:34:18.326Z,48.66
2022-10-11T01:34:29.067Z,48.66
2022-10-11T01:34:40.749Z,48.56
2022-10-11T01:34:51.496Z,48.56
2022-10-11T01:35:03.980Z,48.56
2022-10-11T01:35:14.676Z,48.56
2022-10-11T01:35:25.428Z,48.66
2022-10-11T01:35:36.183Z,48.66
2022-10-11T01:35:46.926Z,48.56
2022-10-11T01:35:57.666Z,48.56
2022-10-11T01:36:08.781Z,48.56
2022-10-11T01:36:19.587Z,48.56
2022-10-11T01:36:31.309Z,48.56
2022-10-11T01:36:42.044Z,48.56
2022-10-11T01:36:52.811Z,48.56
2022-10-11T01:37:03.527Z,48.56
2022-10-11T01:37:14.300Z,48.56
2022-10-11T01:37:25.988Z,48.56
2022-10-11T01:37:36.743Z,48.56
2022-10-11T01:37:48.440Z,48.56
2022-10-11T01:38:00.672Z,48.56
2022-10-11T01:38:14.484Z,48.56
2022-10-11T01:38:27.699Z,48.56
2022-10-11T01:38:38.439Z,48.56
2022-10-11T01:38:50.890Z,48.66
2022-10-11T01:39:03.300Z,48.56
2022-10-11T01:39:16.260Z,48.56
2022-10-11T01:39:29.478Z,48.56
2022-10-11T01:39:41.960Z,48.56
2022-10-11T01:39:54.440Z,48.56
2022-10-11T01:40:05.190Z,48.56
2022-10-11T01:40:18.142Z,48.56
2022-10-11T01:40:28.872Z,48.56
2022-10-11T01:40:40.559Z,48.56
2022-10-11T01:40:51.291Z,48.56
2022-10-11T01:41:02.021Z,48.56
2022-10-11T01:41:12.769Z,48.56
2022-10-11T01:41:24.470Z,48.56
2022-10-11T01:41:37.423Z,48.56
2022-10-11T01:41:50.643Z,48.56
2022-10-11T01:42:03.856Z,48.56
2022-10-11T01:42:15.569Z,48.56
2022-10-11T01:42:29.029Z,48.56
2022-10-11T01:42:39.782Z,48.56
2022-10-11T01:42:52.230Z,48.56
2022-10-11T01:43:02.960Z,48.56
2022-10-11T01:43:13.690Z,48.56
2022-10-11T01:43:26.120Z,48.56
2022-10-11T01:43:36.909Z,48.56
2022-10-11T01:43:47.655Z,48.56
2022-10-11T01:43:58.372Z,48.56
2022-10-11T01:44:09.101Z,48.56
2022-10-11T01:44:19.840Z,48.56
2022-10-11T01:44:32.265Z,48.56
2022-10-11T01:44:43.972Z,48.56
2022-10-11T01:44:54.700Z,48.56
2022-10-11T01:45:05.448Z,48.56
2022-10-11T01:45:16.183Z,48.56
2022-10-11T01:45:26.943Z,48.56
2022-10-11T01:45:37.668Z,48.56
2022-10-11T01:45:48.399Z,48.56
2022-10-11T01:45:59.188Z,48.56
2022-10-11T01:46:09.912Z,48.56
2022-10-11T01:46:21.612Z,48.56
2022-10-11T01:46:32.341Z,48.56
2022-10-11T01:46:43.071Z,48.56
2022-10-11T01:46:55.292Z,48.56
2022-10-11T01:47:07.722Z,48.56
2022-10-11T01:47:18.458Z,48.56
2022-10-11T01:47:29.198Z,48.56
2022-10-11T01:47:39.934Z,48.56
2022-10-11T01:47:51.638Z,48.56
2022-10-11T01:48:04.071Z,48.56
2022-10-11T01:48:14.814Z,48.56
2022-10-11T01:48:27.275Z,48.56
2022-10-11T01:48:41.012Z,48.56
2022-10-11T01:48:51.764Z,48.56
2022-10-11T01:49:02.496Z,48.56
2022-10-11T01:49:14.187Z,48.56
2022-10-11T01:49:25.902Z,48.56
2022-10-11T01:49:39.112Z,48.56
2022-10-11T01:49:49.866Z,48.56
2022-10-11T01:50:01.560Z,48.56
2022-10-11T01:50:13.274Z,48.56
2022-10-11T01:50:24.023Z,48.56
2022-10-11T01:50:34.787Z,48.56
2022-10-11T01:50:45.538Z,48.56
2022-10-11T01:50:56.292Z,48.56
2022-10-11T01:51:07.037Z,48.56
2022-10-11T01:51:18.753Z,48.56
2022-10-11T01:51:31.942Z,48.56
2022-10-11T01:51:47.138Z,48.56
2022-10-11T01:51:59.973Z,48.46
2022-10-11T01:52:11.743Z,48.56
2022-10-11T01:52:22.483Z,48.56
2022-10-11T01:52:36.224Z,48.56
2022-10-11T01:52:48.695Z,48.56
2022-10-11T01:52:59.483Z,48.46
2022-10-11T01:53:11.914Z,48.56
2022-10-11T01:53:22.636Z,48.46
2022-10-11T01:53:33.374Z,48.56
2022-10-11T01:53:45.831Z,48.46
2022-10-11T01:53:56.590Z,48.46
2022-10-11T01:54:07.313Z,48.46
2022-10-11T01:54:18.045Z,48.46
2022-10-11T01:54:44.137Z,48.46
2022-10-11T01:55:08.025Z,48.56
2022-10-11T01:55:15.347Z,48.56
2022-10-11T01:55:15.627Z,48.46
2022-10-11T01:55:26.391Z,48.46
2022-10-11T01:55:37.124Z,48.46
2022-10-11T01:55:50.335Z,48.46
2022-10-11T01:56:01.456Z,48.46
2022-10-11T01:56:12.395Z,48.46
2022-10-11T01:56:23.150Z,48.46
2022-10-11T01:56:33.892Z,48.46
2022-10-11T01:56:46.312Z,48.46
2022-10-11T01:56:57.045Z,48.46
2022-10-11T01:57:09.475Z,48.46
2022-10-11T01:57:20.236Z,48.46
2022-10-11T01:57:30.998Z,48.46
2022-10-11T01:57:41.783Z,48.46
2022-10-11T01:57:52.525Z,48.49
2022-10-11T01:58:03.248Z,48.46
2022-10-11T01:58:15.736Z,48.46
2022-10-11T01:58:26.459Z,48.46
2022-10-11T01:58:37.185Z,48.46
2022-10-11T01:58:52.967Z,48.46
2022-10-11T01:59:06.218Z,48.46
2022-10-11T01:59:16.984Z,48.46
2022-10-11T01:59:28.676Z,48.46
2022-10-11T01:59:41.126Z,48.49
2022-10-11T01:59:53.579Z,48.46
2022-10-11T02:00:05.321Z,48.46
2022-10-11T02:00:16.034Z,48.46
2022-10-11T02:00:28.462Z,48.46
2022-10-11T02:00:39.206Z,48.49
2022-10-11T02:00:50.931Z,48.49
2022-10-11T02:01:04.189Z,48.49
2022-10-11T02:01:14.983Z,48.49
2022-10-11T02:01:25.758Z,48.49
2022-10-11T02:01:38.790Z,48.46
2022-10-11T02:01:52.022Z,48.49
2022-10-11T02:02:02.806Z,48.46
2022-10-11T02:02:13.547Z,48.49
2022-10-11T02:02:24.326Z,48.49
2022-10-11T02:02:37.544Z,48.49
2022-10-11T02:02:51.249Z,48.49
2022-10-11T02:03:02.029Z,48.49
2022-10-11T02:03:15.250Z,48.49
2022-10-11T02:03:26.016Z,48.38
2022-10-11T02:03:36.766Z,48.38
2022-10-11T02:03:49.220Z,48.49
2022-10-11T02:03:59.959Z,48.49
2022-10-11T02:04:10.717Z,48.49
2022-10-11T02:04:21.456Z,48.49
2022-10-11T02:04:33.869Z,48.49
2022-10-11T02:04:44.603Z,48.49
2022-10-11T02:04:55.338Z,48.49
2022-10-11T02:05:06.080Z,48.49
2022-10-11T02:05:17.781Z,48.38
2022-10-11T02:05:29.499Z,48.49
2022-10-11T02:05:40.239Z,48.49
2022-10-11T02:05:53.157Z,48.49
2022-10-11T02:06:04.260Z,48.49
2022-10-11T02:06:15.219Z,48.49
2022-10-11T02:06:25.954Z,48.49
2022-10-11T02:06:36.695Z,48.49
2022-10-11T02:06:49.369Z,48.38
2022-10-11T02:07:00.100Z,48.38
2022-10-11T02:07:10.847Z,48.49
2022-10-11T02:07:21.582Z,48.38
2022-10-11T02:07:34.056Z,48.49
2022-10-11T02:07:44.800Z,48.49
2022-10-11T02:07:55.558Z,48.49
2022-10-11T02:08:06.296Z,48.49
2022-10-11T02:08:18.734Z,48.49
2022-10-11T02:08:29.491Z,48.49
2022-10-11T02:08:41.199Z,48.49
2022-10-11T02:08:51.949Z,48.49
2022-10-11T02:09:07.891Z,48.49
2022-10-11T02:09:20.991Z,48.49
2022-10-11T02:09:33.255Z,48.38
2022-10-11T02:09:43.989Z,48.49
2022-10-11T02:09:54.751Z,48.38
2022-10-11T02:10:06.470Z,48.38
2022-10-11T02:10:19.680Z,48.38
2022-10-11T02:10:30.419Z,48.38
2022-10-11T02:10:41.171Z,48.38
2022-10-11T02:10:51.982Z,48.38
2022-10-11T02:11:04.420Z,48.38
2022-10-11T02:11:15.169Z,48.38
2022-10-11T02:11:28.372Z,48.38
2022-10-11T02:11:39.121Z,48.38
2022-10-11T02:11:49.870Z,48.38
2022-10-11T02:12:00.621Z,48.38
2022-10-11T02:12:11.374Z,48.38
2022-10-11T02:12:22.123Z,48.38
2022-10-11T02:12:32.871Z,48.38
2022-10-11T02:12:43.670Z,48.38
2022-10-11T02:12:57.383Z,48.38
2022-10-11T02:13:08.153Z,48.38
2022-10-11T02:13:21.400Z,48.38
2022-10-11T02:13:33.830Z,48.38
2022-10-11T02:13:45.558Z,48.38
2022-10-11T02:13:56.332Z,48.38
2022-10-11T02:14:07.062Z,48.38
2022-10-11T02:14:19.498Z,48.38
2022-10-11T02:14:30.240Z,48.38
2022-10-11T02:14:40.986Z,48.38
2022-10-11T02:14:51.723Z,48.38
2022-10-11T02:15:02.462Z,48.38
2022-10-11T02:15:13.192Z,48.38
2022-10-11T02:15:23.931Z,48.38
2022-10-11T02:15:34.663Z,48.38
2022-10-11T02:15:45.401Z,48.38
2022-10-11T02:15:56.164Z,48.38
2022-10-11T02:16:08.869Z,48.38
2022-10-11T02:16:19.781Z,48.38
2022-10-11T02:16:30.543Z,48.38
2022-10-11T02:16:43.244Z,48.28
2022-10-11T02:16:53.993Z,48.38
2022-10-11T02:17:05.710Z,48.28
2022-10-11T02:17:16.423Z,48.38
2022-10-11T02:17:28.361Z,48.38
2022-10-11T02:17:39.091Z,48.38
2022-10-11T02:17:51.523Z,48.38
2022-10-11T02:18:02.272Z,48.38
2022-10-11T02:18:13.056Z,48.38
2022-10-11T02:18:23.780Z,48.38
2022-10-11T02:18:34.539Z,48.28
2022-10-11T02:18:46.224Z,48.28
2022-10-11T02:18:58.663Z,48.28
2022-10-11T02:19:09.431Z,48.28
2022-10-11T02:19:20.163Z,48.38
2022-10-11T02:19:36.313Z,48.38
2022-10-11T02:19:49.265Z,48.38
2022-10-11T02:20:01.005Z,48.38
2022-10-11T02:20:11.754Z,48.38
2022-10-11T02:20:22.491Z,48.28
2022-10-11T02:20:35.732Z,48.28
2022-10-11T02:20:48.233Z,48.28
2022-10-11T02:20:58.963Z,48.28
2022-10-11T02:21:09.740Z,48.28
2022-10-11T02:21:21.443Z,48.28
2022-10-11T02:21:33.154Z,48.28
2022-10-11T02:21:46.380Z,48.28
2022-10-11T02:21:57.104Z,48.28
2022-10-11T02:22:07.836Z,48.28
2022-10-11T02:22:21.042Z,48.28
2022-10-11T02:22:31.809Z,48.28
2022-10-11T02:22:42.544Z,48.28
2022-10-11T02:22:55.014Z,48.28
2022-10-11T02:23:05.774Z,48.28
2022-10-11T02:23:18.214Z,48.28
2022-10-11T02:23:29.954Z,48.28
2022-10-11T02:23:41.683Z,48.28
2022-10-11T02:23:53.407Z,48.28
2022-10-11T02:24:05.157Z,48.28
2022-10-11T02:24:15.914Z,48.28
2022-10-11T02:24:26.644Z,48.28
2022-10-11T02:24:37.422Z,48.28
2022-10-11T02:24:49.897Z,48.28
2022-10-11T02:25:00.645Z,48.28
2022-10-11T02:25:11.411Z,48.28
2022-10-11T02:25:22.167Z,48.28
2022-10-11T02:25:32.910Z,48.28
2022-10-11T02:25:43.645Z,48.28
2022-10-11T02:25:54.455Z,48.28
2022-10-11T02:26:08.537Z,48.28
2022-10-11T02:26:19.413Z,48.28
2022-10-11T02:26:32.355Z,48.28
2022-10-11T02:26:43.086Z,48.28
2022-10-11T02:26:53.836Z,48.28
2022-10-11T02:27:05.567Z,48.28
2022-10-11T02:27:16.305Z,48.28
2022-10-11T02:27:28.746Z,48.28
2022-10-11T02:27:39.496Z,48.28
2022-10-11T02:27:50.224Z,48.28
2022-10-11T02:28:00.947Z,48.28
2022-10-11T02:28:11.759Z,48.28
2022-10-11T02:28:22.518Z,48.28